createdAt,value
2019-01-12T00:00:35.665Z,4.37
2019-01-12T00:01:45.849Z,4.37
2019-01-12T00:02:55.984Z,4.38
2019-01-12T00:04:06.095Z,4.33
2019-01-12T00:05:16.209Z,4.4
2019-01-12T00:06:26.346Z,4.31
2019-01-12T00:07:36.224Z,4.4
2019-01-12T00:08:46.338Z,4.31
2019-01-12T00:09:56.666Z,4.28
2019-01-12T00:11:06.792Z,4.37
2019-01-12T00:12:16.923Z,4.46
2019-01-12T00:13:27.037Z,4.38
2019-01-12T00:14:37.149Z,4.3
2019-01-12T00:15:47.281Z,4.3
2019-01-12T00:16:57.393Z,4.31
2019-01-12T00:18:07.538Z,4.4
2019-01-12T00:19:17.658Z,4.27
2019-01-12T00:20:27.772Z,4.33
2019-01-12T00:21:37.897Z,4.31
2019-01-12T00:22:47.773Z,4.36
2019-01-12T00:23:57.628Z,4.31
2019-01-12T00:25:07.748Z,4.3
2019-01-12T00:26:17.871Z,4.33
2019-01-12T00:27:27.991Z,4.23
2019-01-12T00:28:38.093Z,4.36
2019-01-12T00:29:48.206Z,4.31
2019-01-12T00:30:58.325Z,4.28
2019-01-12T00:32:08.429Z,4.34
2019-01-12T00:33:18.565Z,4.3
2019-01-12T00:34:28.683Z,4.31
2019-01-12T00:35:38.455Z,4.4
2019-01-12T00:36:48.605Z,4.46
2019-01-12T00:37:58.739Z,4.38
2019-01-12T00:39:08.867Z,4.4
2019-01-12T00:40:18.734Z,4.46
2019-01-12T00:41:28.843Z,4.3
2019-01-12T00:42:38.951Z,4.41
2019-01-12T00:43:49.054Z,4.34
2019-01-12T00:44:59.175Z,4.46
2019-01-12T00:46:09.013Z,4.46
2019-01-12T00:47:19.108Z,4.34
2019-01-12T00:48:29.274Z,4.25
2019-01-12T00:49:39.402Z,4.23
2019-01-12T00:50:49.262Z,4.36
2019-01-12T00:51:59.378Z,4.34
2019-01-12T00:53:09.477Z,4.34
2019-01-12T00:54:19.584Z,4.36
2019-01-12T00:55:29.695Z,4.34
2019-01-12T00:56:39.815Z,4.34
2019-01-12T00:57:49.932Z,4.3
2019-01-12T00:59:00.062Z,4.28
2019-01-12T01:00:09.919Z,4.36
2019-01-12T01:01:20.058Z,4.37
2019-01-12T01:02:30.186Z,4.25
2019-01-12T01:03:40.307Z,4.27
2019-01-12T01:04:50.428Z,4.27
2019-01-12T01:06:00.554Z,4.3
2019-01-12T01:07:10.655Z,4.4
2019-01-12T01:08:20.757Z,4.31
2019-01-12T01:09:30.872Z,4.37
2019-01-12T01:10:40.973Z,4.41
2019-01-12T01:11:51.091Z,4.4
2019-01-12T01:13:01.435Z,4.41
2019-01-12T01:14:11.539Z,4.33
2019-01-12T01:15:21.657Z,4.4
2019-01-12T01:16:31.790Z,4.46
2019-01-12T01:17:41.911Z,4.41
2019-01-12T01:18:52.018Z,4.46
2019-01-12T01:20:02.124Z,4.43
2019-01-12T01:21:12.001Z,4.43
2019-01-12T01:22:22.110Z,4.34
2019-01-12T01:23:32.235Z,4.43
2019-01-12T01:24:48.151Z,4.38
2019-01-12T01:25:58.272Z,4.36
2019-01-12T01:27:08.386Z,4.34
2019-01-12T01:28:18.231Z,4.41
2019-01-12T01:29:28.323Z,4.49
2019-01-12T01:30:38.427Z,4.38
2019-01-12T01:31:48.555Z,4.38
2019-01-12T01:32:58.660Z,4.34
2019-01-12T01:34:09.059Z,4.28
2019-01-12T01:35:19.169Z,4.4
2019-01-12T01:36:29.310Z,4.37
2019-01-12T01:37:39.419Z,4.31
2019-01-12T01:38:49.518Z,4.28
2019-01-12T01:39:59.724Z,4.46
2019-01-12T01:41:09.831Z,4.46
2019-01-12T01:42:19.928Z,4.38
2019-01-12T01:43:29.541Z,4.37
2019-01-12T01:44:39.651Z,4.4
2019-01-12T01:45:49.809Z,4.46
2019-01-12T01:46:59.958Z,4.41
2019-01-12T01:48:10.084Z,4.43
2019-01-12T01:49:20.186Z,4.4
2019-01-12T01:50:30.326Z,4.38
2019-01-12T01:51:40.467Z,4.43
2019-01-12T01:52:50.948Z,4.4
2019-01-12T01:54:00.699Z,4.38
2019-01-12T01:55:10.817Z,4.41
2019-01-12T01:56:20.679Z,4.33
2019-01-12T01:57:30.790Z,4.38
2019-01-12T01:58:40.909Z,4.4
2019-01-12T01:59:51.030Z,4.46
2019-01-12T02:01:01.133Z,4.41
2019-01-12T02:02:11.245Z,4.36
2019-01-12T02:03:21.371Z,4.34
2019-01-12T02:04:31.484Z,4.38
2019-01-12T02:05:41.633Z,4.4
2019-01-12T02:06:51.731Z,4.34
2019-01-12T02:08:01.846Z,4.33
2019-01-12T02:09:12.142Z,4.31
2019-01-12T02:10:22.265Z,4.37
2019-01-12T02:11:32.378Z,4.38
2019-01-12T02:12:42.482Z,4.38
2019-01-12T02:13:52.587Z,4.38
2019-01-12T02:15:02.691Z,4.34
2019-01-12T02:16:12.997Z,4.34
2019-01-12T02:17:23.127Z,4.38
2019-01-12T02:18:33.235Z,4.37
2019-01-12T02:19:43.406Z,4.36
2019-01-12T02:20:53.517Z,4.43
2019-01-12T02:22:03.655Z,4.38
2019-01-12T02:23:13.499Z,4.37
2019-01-12T02:24:23.608Z,4.43
2019-01-12T02:25:33.725Z,4.46
2019-01-12T02:26:43.899Z,4.4
2019-01-12T02:27:53.999Z,4.4
2019-01-12T02:29:04.117Z,4.37
2019-01-12T02:30:14.247Z,4.46
2019-01-12T02:31:24.363Z,4.34
2019-01-12T02:32:34.492Z,4.41
2019-01-12T02:33:44.608Z,4.38
2019-01-12T02:34:54.734Z,4.4
2019-01-12T02:36:04.887Z,4.4
2019-01-12T02:37:15.000Z,4.41
2019-01-12T02:38:25.151Z,4.41
2019-01-12T02:39:34.995Z,4.46
2019-01-12T02:40:45.156Z,4.37
2019-01-12T02:41:55.282Z,4.41
2019-01-12T02:43:05.391Z,4.41
2019-01-12T02:44:15.498Z,4.46
2019-01-12T02:45:25.612Z,4.46
2019-01-12T02:46:35.732Z,4.4
2019-01-12T02:47:45.834Z,4.46
2019-01-12T02:48:56.972Z,4.38
2019-01-12T02:50:06.826Z,4.38
2019-01-12T02:51:16.918Z,4.41
2019-01-12T02:52:27.032Z,4.4
2019-01-12T02:53:37.150Z,4.37
2019-01-12T02:54:47.275Z,4.43
2019-01-12T02:55:57.434Z,4.49
2019-01-12T02:57:07.547Z,4.47
2019-01-12T02:58:18.421Z,4.4
2019-01-12T02:59:28.583Z,4.46
2019-01-12T03:00:38.687Z,4.43
2019-01-12T03:01:48.803Z,4.43
2019-01-12T03:02:58.932Z,4.46
2019-01-12T03:04:09.056Z,4.37
2019-01-12T03:05:19.157Z,4.43
2019-01-12T03:06:29.289Z,4.4
2019-01-12T03:07:39.043Z,4.46
2019-01-12T03:08:49.205Z,4.4
2019-01-12T03:09:59.310Z,4.49
2019-01-12T03:11:09.441Z,4.43
2019-01-12T03:12:19.535Z,4.47
2019-01-12T03:13:29.657Z,4.41
2019-01-12T03:14:39.782Z,4.46
2019-01-12T03:15:49.888Z,4.4
2019-01-12T03:16:59.753Z,4.46
2019-01-12T03:18:09.866Z,4.41
2019-01-12T03:19:19.983Z,4.46
2019-01-12T03:20:29.717Z,4.4
2019-01-12T03:21:39.839Z,4.46
2019-01-12T03:22:50.043Z,4.41
2019-01-12T03:24:00.153Z,4.4
2019-01-12T03:25:17.491Z,4.43
2019-01-12T03:26:28.045Z,4.41
2019-01-12T03:27:38.150Z,4.4
2019-01-12T03:28:48.050Z,4.49
2019-01-12T03:29:58.166Z,4.36
2019-01-12T03:31:08.327Z,4.4
2019-01-12T03:32:18.481Z,4.41
2019-01-12T03:33:28.661Z,4.49
2019-01-12T03:34:38.784Z,4.38
2019-01-12T03:35:48.893Z,4.52
2019-01-12T03:36:59.014Z,4.46
2019-01-12T03:38:09.115Z,4.5
2019-01-12T03:39:19.249Z,4.46
2019-01-12T03:40:29.376Z,4.52
2019-01-12T03:41:39.492Z,4.5
2019-01-12T03:42:49.611Z,4.5
2019-01-12T03:43:59.715Z,4.43
2019-01-12T03:45:09.814Z,4.5
2019-01-12T03:46:19.926Z,4.5
2019-01-12T03:47:29.782Z,4.56
2019-01-12T03:48:39.885Z,4.53
2019-01-12T03:49:50.005Z,4.53
2019-01-12T03:51:00.122Z,4.5
2019-01-12T03:52:09.981Z,4.56
2019-01-12T03:53:20.114Z,4.52
2019-01-12T03:54:29.971Z,4.57
2019-01-12T03:55:40.068Z,4.41
2019-01-12T03:56:50.169Z,4.49
2019-01-12T03:58:00.278Z,4.41
2019-01-12T03:59:10.401Z,4.46
2019-01-12T04:00:20.518Z,4.49
2019-01-12T04:01:30.362Z,4.37
2019-01-12T04:02:40.459Z,4.4
2019-01-12T04:03:50.551Z,4.37
2019-01-12T04:05:00.656Z,4.4
2019-01-12T04:06:10.760Z,4.3
2019-01-12T04:07:20.859Z,4.31
2019-01-12T04:08:30.991Z,4.36
2019-01-12T04:09:41.117Z,4.28
2019-01-12T04:10:51.193Z,4.37
2019-01-12T04:12:01.301Z,4.28
2019-01-12T04:13:11.455Z,4.36
2019-01-12T04:14:21.567Z,4.23
2019-01-12T04:15:31.684Z,4.3
2019-01-12T04:16:41.795Z,4.27
2019-01-12T04:17:51.893Z,4.33
2019-01-12T04:19:02.018Z,4.3
2019-01-12T04:20:12.129Z,4.27
2019-01-12T04:21:22.240Z,4.33
2019-01-12T04:22:32.365Z,4.22
2019-01-12T04:23:42.470Z,4.27
2019-01-12T04:24:52.593Z,4.27
2019-01-12T04:26:02.705Z,4.33
2019-01-12T04:27:12.801Z,4.27
2019-01-12T04:28:22.913Z,4.31
2019-01-12T04:29:33.041Z,4.31
2019-01-12T04:30:42.884Z,4.28
2019-01-12T04:31:52.992Z,4.3
2019-01-12T04:33:03.125Z,4.2
2019-01-12T04:34:13.226Z,4.4
2019-01-12T04:35:23.337Z,4.28
2019-01-12T04:36:33.447Z,4.3
2019-01-12T04:37:43.578Z,4.34
2019-01-12T04:38:53.683Z,4.34
2019-01-12T04:40:03.794Z,4.37
2019-01-12T04:41:13.921Z,4.36
2019-01-12T04:42:24.056Z,4.27
2019-01-12T04:43:34.170Z,4.27
2019-01-12T04:44:44.283Z,4.37
2019-01-12T04:45:54.386Z,4.33
2019-01-12T04:47:04.524Z,4.37
2019-01-12T04:48:14.736Z,4.31
2019-01-12T04:49:25.161Z,4.37
2019-01-12T04:50:35.258Z,4.38
2019-01-12T04:51:45.388Z,4.4
2019-01-12T04:52:55.498Z,4.4
2019-01-12T04:54:06.596Z,4.41
2019-01-12T04:55:16.462Z,4.46
2019-01-12T04:56:26.590Z,4.47
2019-01-12T04:57:36.805Z,4.38
2019-01-12T04:58:46.908Z,4.43
2019-01-12T04:59:57.018Z,4.4
2019-01-12T05:01:07.164Z,4.4
2019-01-12T05:02:17.266Z,4.4
2019-01-12T05:03:27.377Z,4.4
2019-01-12T05:04:37.496Z,4.4
2019-01-12T05:05:47.637Z,4.41
2019-01-12T05:06:57.772Z,4.46
2019-01-12T05:08:07.906Z,4.41
2019-01-12T05:09:18.009Z,4.41
2019-01-12T05:10:28.101Z,4.41
2019-01-12T05:11:38.208Z,4.41
2019-01-12T05:12:48.328Z,4.4
2019-01-12T05:13:58.425Z,4.38
2019-01-12T05:15:08.554Z,4.38
2019-01-12T05:16:18.647Z,4.4
2019-01-12T05:17:28.750Z,4.33
2019-01-12T05:18:39.323Z,4.4
2019-01-12T05:19:49.176Z,4.36
2019-01-12T05:20:59.282Z,4.38
2019-01-12T05:22:09.378Z,4.27
2019-01-12T05:23:19.480Z,4.46
2019-01-12T05:24:29.599Z,4.31
2019-01-12T05:25:39.718Z,4.37
2019-01-12T05:26:56.661Z,4.4
2019-01-12T05:28:06.784Z,4.41
2019-01-12T05:29:16.900Z,4.37
2019-01-12T05:30:27.007Z,4.37
2019-01-12T05:31:37.157Z,4.3
2019-01-12T05:32:47.251Z,4.31
2019-01-12T05:33:57.374Z,4.27
2019-01-12T05:35:07.501Z,4.3
2019-01-12T05:36:17.598Z,4.31
2019-01-12T05:37:27.686Z,4.25
2019-01-12T05:38:37.804Z,4.27
2019-01-12T05:39:47.906Z,4.31
2019-01-12T05:40:58.010Z,4.31
2019-01-12T05:42:07.958Z,4.27
2019-01-12T05:43:18.460Z,4.25
2019-01-12T05:44:28.316Z,4.34
2019-01-12T05:45:38.426Z,4.3
2019-01-12T05:46:48.534Z,4.3
2019-01-12T05:47:58.395Z,4.27
2019-01-12T05:49:08.516Z,4.28
2019-01-12T05:50:18.634Z,4.22
2019-01-12T05:51:28.745Z,4.27
2019-01-12T05:52:38.880Z,4.2
2019-01-12T05:53:48.977Z,4.27
2019-01-12T05:54:59.095Z,4.19
2019-01-12T05:56:09.223Z,4.23
2019-01-12T05:57:19.350Z,4.2
2019-01-12T05:58:29.469Z,4.27
2019-01-12T05:59:39.571Z,4.23
2019-01-12T06:00:49.674Z,4.25
2019-01-12T06:01:59.778Z,4.27
2019-01-12T06:03:09.888Z,4.23
2019-01-12T06:04:19.991Z,4.2
2019-01-12T06:05:30.102Z,4.28
2019-01-12T06:06:40.206Z,4.36
2019-01-12T06:07:50.311Z,4.34
2019-01-12T06:09:00.429Z,4.28
2019-01-12T06:10:10.540Z,4.33
2019-01-12T06:11:20.638Z,4.4
2019-01-12T06:12:30.800Z,4.33
2019-01-12T06:13:41.013Z,4.27
2019-01-12T06:14:51.129Z,4.38
2019-01-12T06:16:01.229Z,4.41
2019-01-12T06:17:11.330Z,4.46
2019-01-12T06:18:21.198Z,4.4
2019-01-12T06:19:31.297Z,4.4
2019-01-12T06:20:41.405Z,4.46
2019-01-12T06:21:51.502Z,4.37
2019-01-12T06:23:01.809Z,4.41
2019-01-12T06:24:11.941Z,4.4
2019-01-12T06:25:22.066Z,4.37
2019-01-12T06:26:32.198Z,4.43
2019-01-12T06:27:42.314Z,4.38
2019-01-12T06:28:52.443Z,4.43
2019-01-12T06:30:03.706Z,4.31
2019-01-12T06:31:14.035Z,4.38
2019-01-12T06:32:24.137Z,4.27
2019-01-12T06:33:34.247Z,4.31
2019-01-12T06:34:44.370Z,4.34
2019-01-12T06:35:54.493Z,4.34
2019-01-12T06:37:04.607Z,4.31
2019-01-12T06:38:14.759Z,4.3
2019-01-12T06:39:24.923Z,4.33
2019-01-12T06:40:35.047Z,4.3
2019-01-12T06:41:45.190Z,4.36
2019-01-12T06:42:55.307Z,4.33
2019-01-12T06:44:05.428Z,4.31
2019-01-12T06:45:15.316Z,4.34
2019-01-12T06:46:25.430Z,4.3
2019-01-12T06:47:35.545Z,4.4
2019-01-12T06:48:45.665Z,4.34
2019-01-12T06:49:55.773Z,4.27
2019-01-12T06:51:05.884Z,4.33
2019-01-12T06:52:15.988Z,4.33
2019-01-12T06:53:26.088Z,4.3
2019-01-12T06:54:36.186Z,4.27
2019-01-12T06:55:46.337Z,4.33
2019-01-12T06:56:56.476Z,4.36
2019-01-12T06:58:06.575Z,4.34
2019-01-12T06:59:16.329Z,4.36
2019-01-12T07:00:26.438Z,4.31
2019-01-12T07:01:36.559Z,4.36
2019-01-12T07:02:46.683Z,4.31
2019-01-12T07:03:56.797Z,4.36
2019-01-12T07:05:06.908Z,4.36
2019-01-12T07:06:17.007Z,4.3
2019-01-12T07:07:27.116Z,4.34
2019-01-12T07:08:36.986Z,4.34
2019-01-12T07:09:46.830Z,4.27
2019-01-12T07:10:56.933Z,4.28
2019-01-12T07:12:07.032Z,4.28
2019-01-12T07:13:17.141Z,4.33
2019-01-12T07:14:27.346Z,4.36
2019-01-12T07:15:37.565Z,4.38
2019-01-12T07:16:47.668Z,4.37
2019-01-12T07:17:57.766Z,4.31
2019-01-12T07:19:14.212Z,4.43
2019-01-12T07:20:24.320Z,4.4
2019-01-12T07:21:34.443Z,4.38
2019-01-12T07:22:44.544Z,4.4
2019-01-12T07:23:54.665Z,4.4
2019-01-12T07:25:04.425Z,4.46
2019-01-12T07:26:20.053Z,4.41
2019-01-12T07:27:30.325Z,4.46
2019-01-12T07:28:40.423Z,4.41
2019-01-12T07:29:50.532Z,4.43
2019-01-12T07:31:00.651Z,4.41
2019-01-12T07:32:10.792Z,4.47
2019-01-12T07:33:20.895Z,4.4
2019-01-12T07:34:31.038Z,4.41
2019-01-12T07:35:41.151Z,4.41
2019-01-12T07:36:51.264Z,4.41
2019-01-12T07:38:01.383Z,4.4
2019-01-12T07:39:11.496Z,4.36
2019-01-12T07:40:21.614Z,4.43
2019-01-12T07:41:31.741Z,4.36
2019-01-12T07:42:41.867Z,4.37
2019-01-12T07:43:51.975Z,4.38
2019-01-12T07:45:02.150Z,4.46
2019-01-12T07:46:12.267Z,4.46
2019-01-12T07:47:22.367Z,4.38
2019-01-12T07:48:32.470Z,4.4
2019-01-12T07:49:42.578Z,4.49
2019-01-12T07:50:52.687Z,4.46
2019-01-12T07:52:02.830Z,4.4
2019-01-12T07:53:12.931Z,4.43
2019-01-12T07:54:23.054Z,4.46
2019-01-12T07:55:33.170Z,4.5
2019-01-12T07:56:43.338Z,4.56
2019-01-12T07:57:53.463Z,4.49
2019-01-12T07:59:03.560Z,4.53
2019-01-12T08:00:13.682Z,4.55
2019-01-12T08:01:23.807Z,4.5
2019-01-12T08:02:33.915Z,4.53
2019-01-12T08:03:44.011Z,4.46
2019-01-12T08:04:54.112Z,4.56
2019-01-12T08:06:04.234Z,4.53
2019-01-12T08:07:14.345Z,4.55
2019-01-12T08:08:24.481Z,4.53
2019-01-12T08:09:34.615Z,4.6
2019-01-12T08:10:44.713Z,4.57
2019-01-12T08:11:54.856Z,4.62
2019-01-12T08:13:05.006Z,4.52
2019-01-12T08:14:14.886Z,4.55
2019-01-12T08:15:24.998Z,4.55
2019-01-12T08:16:35.126Z,4.55
2019-01-12T08:17:45.258Z,4.53
2019-01-12T08:18:55.355Z,4.55
2019-01-12T08:20:05.486Z,4.52
2019-01-12T08:21:15.848Z,4.57
2019-01-12T08:22:25.714Z,4.53
2019-01-12T08:23:35.843Z,4.55
2019-01-12T08:24:45.972Z,4.52
2019-01-12T08:25:56.156Z,4.53
2019-01-12T08:27:06.300Z,4.49
2019-01-12T08:28:16.416Z,4.57
2019-01-12T08:29:26.548Z,4.52
2019-01-12T08:30:36.970Z,4.65
2019-01-12T08:31:47.271Z,4.59
2019-01-12T08:32:57.409Z,4.59
2019-01-12T08:34:07.517Z,4.7
2019-01-12T08:35:17.634Z,4.67
2019-01-12T08:36:27.750Z,4.71
2019-01-12T08:37:37.877Z,4.7
2019-01-12T08:38:47.985Z,4.7
2019-01-12T08:39:58.103Z,4.7
2019-01-12T08:41:08.238Z,4.7
2019-01-12T08:42:18.359Z,4.74
2019-01-12T08:43:28.513Z,4.7
2019-01-12T08:44:38.648Z,4.67
2019-01-12T08:45:48.827Z,4.67
2019-01-12T08:46:58.949Z,4.74
2019-01-12T08:48:09.083Z,4.65
2019-01-12T08:49:19.254Z,4.62
2019-01-12T08:50:29.393Z,4.65
2019-01-12T08:51:39.520Z,4.67
2019-01-12T08:52:49.669Z,4.8
2019-01-12T08:53:59.806Z,4.8
2019-01-12T08:55:09.922Z,4.8
2019-01-12T08:56:20.073Z,4.77
2019-01-12T08:57:30.209Z,4.77
2019-01-12T08:58:39.968Z,4.8
2019-01-12T08:59:50.106Z,4.83
2019-01-12T09:01:00.242Z,4.92
2019-01-12T09:02:10.371Z,4.86
2019-01-12T09:03:20.488Z,4.92
2019-01-12T09:04:30.605Z,4.9
2019-01-12T09:05:48.718Z,4.9
2019-01-12T09:06:58.854Z,4.93
2019-01-12T09:08:08.982Z,4.95
2019-01-12T09:09:19.126Z,4.9
2019-01-12T09:10:29.268Z,4.89
2019-01-12T09:11:39.384Z,4.96
2019-01-12T09:12:49.558Z,4.89
2019-01-12T09:13:59.744Z,4.93
2019-01-12T09:15:09.881Z,4.92
2019-01-12T09:16:20.043Z,4.83
2019-01-12T09:17:30.223Z,4.92
2019-01-12T09:18:40.346Z,4.95
2019-01-12T09:19:50.516Z,4.96
2019-01-12T09:21:00.647Z,4.92
2019-01-12T09:22:10.423Z,4.95
2019-01-12T09:23:20.549Z,4.9
2019-01-12T09:24:30.694Z,4.93
2019-01-12T09:25:40.803Z,4.98
2019-01-12T09:26:50.954Z,4.93
2019-01-12T09:28:01.822Z,4.96
2019-01-12T09:29:12.002Z,4.92
2019-01-12T09:30:22.240Z,4.96
2019-01-12T09:31:32.438Z,4.93
2019-01-12T09:32:42.573Z,4.95
2019-01-12T09:33:52.961Z,4.99
2019-01-12T09:35:03.102Z,4.98
2019-01-12T09:36:13.241Z,4.99
2019-01-12T09:37:23.123Z,5.04
2019-01-12T09:38:33.265Z,5.06
2019-01-12T09:39:43.206Z,5.06
2019-01-12T09:40:53.332Z,5.04
2019-01-12T09:42:03.456Z,5.04
2019-01-12T09:43:13.698Z,5.04
2019-01-12T09:44:23.585Z,5.08
2019-01-12T09:45:33.758Z,5.06
2019-01-12T09:46:43.928Z,5
2019-01-12T09:47:54.048Z,4.98
2019-01-12T09:49:04.184Z,5.04
2019-01-12T09:50:14.327Z,5.03
2019-01-12T09:51:24.472Z,5
2019-01-12T09:52:34.629Z,4.99
2019-01-12T09:53:44.772Z,5.03
2019-01-12T09:54:55.027Z,5.06
2019-01-12T09:56:05.234Z,5.11
2019-01-12T09:57:15.387Z,5.13
2019-01-12T09:58:25.536Z,5.08
2019-01-12T09:59:35.711Z,5.13
2019-01-12T10:00:45.842Z,5.21
2019-01-12T10:01:55.983Z,5.22
2019-01-12T10:03:06.164Z,5.17
2019-01-12T10:04:16.305Z,5.22
2019-01-12T10:05:26.433Z,5.22
2019-01-12T10:06:36.320Z,5.18
2019-01-12T10:07:46.468Z,5.17
2019-01-12T10:08:56.611Z,5.16
2019-01-12T10:10:06.793Z,5.22
2019-01-12T10:11:16.960Z,5.16
2019-01-12T10:12:27.092Z,5.18
2019-01-12T10:13:37.231Z,5.28
2019-01-12T10:14:47.052Z,5.26
2019-01-12T10:15:57.203Z,5.22
2019-01-12T10:17:07.424Z,5.26
2019-01-12T10:18:17.990Z,5.31
2019-01-12T10:19:27.892Z,5.28
2019-01-12T10:20:38.043Z,5.24
2019-01-12T10:21:49.180Z,5.21
2019-01-12T10:22:59.355Z,5.31
2019-01-12T10:24:09.493Z,5.38
2019-01-12T10:25:19.625Z,5.29
2019-01-12T10:26:29.758Z,5.36
2019-01-12T10:27:39.902Z,5.29
2019-01-12T10:28:49.795Z,5.31
2019-01-12T10:29:59.933Z,5.29
2019-01-12T10:31:10.091Z,5.26
2019-01-12T10:32:20.474Z,5.29
2019-01-12T10:33:30.612Z,5.29
2019-01-12T10:34:40.750Z,5.31
2019-01-12T10:35:50.937Z,5.35
2019-01-12T10:37:00.978Z,5.29
2019-01-12T10:38:11.113Z,5.32
2019-01-12T10:39:22.970Z,5.29
2019-01-12T10:40:33.130Z,5.29
2019-01-12T10:41:43.293Z,5.35
2019-01-12T10:42:53.429Z,5.31
2019-01-12T10:44:03.575Z,5.26
2019-01-12T10:45:13.795Z,5.32
2019-01-12T10:46:23.449Z,5.31
2019-01-12T10:47:33.401Z,5.21
2019-01-12T10:48:43.560Z,5.28
2019-01-12T10:49:53.692Z,5.16
2019-01-12T10:51:03.822Z,5.18
2019-01-12T10:52:13.995Z,5.22
2019-01-12T10:53:24.154Z,5.17
2019-01-12T10:54:34.300Z,5.18
2019-01-12T10:55:44.448Z,5.08
2019-01-12T10:56:54.586Z,5.06
2019-01-12T10:58:10.784Z,4.98
2019-01-12T10:59:20.935Z,5.03
2019-01-12T11:00:31.095Z,4.93
2019-01-12T11:01:41.273Z,4.96
2019-01-12T11:02:51.428Z,4.95
2019-01-12T11:04:01.573Z,4.81
2019-01-12T11:05:11.723Z,4.78
2019-01-12T11:06:21.860Z,4.85
2019-01-12T11:07:32.018Z,4.83
2019-01-12T11:08:42.214Z,4.78
2019-01-12T11:09:52.093Z,4.81
2019-01-12T11:11:02.229Z,4.83
2019-01-12T11:12:12.355Z,4.71
2019-01-12T11:13:22.256Z,4.78
2019-01-12T11:14:32.395Z,4.83
2019-01-12T11:15:42.555Z,4.81
2019-01-12T11:16:52.459Z,4.81
2019-01-12T11:18:02.363Z,4.83
2019-01-12T11:19:12.507Z,4.95
2019-01-12T11:20:22.635Z,4.9
2019-01-12T11:21:32.835Z,4.95
2019-01-12T11:22:42.970Z,5
2019-01-12T11:23:53.173Z,5.07
2019-01-12T11:25:03.590Z,5.07
2019-01-12T11:26:13.742Z,5.13
2019-01-12T11:27:23.912Z,5.21
2019-01-12T11:28:34.120Z,5.21
2019-01-12T11:29:45.264Z,5.14
2019-01-12T11:30:55.152Z,5.17
2019-01-12T11:32:05.304Z,5.16
2019-01-12T11:33:15.434Z,5.17
2019-01-12T11:34:25.617Z,5.22
2019-01-12T11:35:35.759Z,5.28
2019-01-12T11:36:45.922Z,5.17
2019-01-12T11:37:56.075Z,5.29
2019-01-12T11:39:06.195Z,5.24
2019-01-12T11:40:16.351Z,5.28
2019-01-12T11:41:26.485Z,5.22
2019-01-12T11:42:36.661Z,5.31
2019-01-12T11:43:46.783Z,5.35
2019-01-12T11:44:56.940Z,5.22
2019-01-12T11:46:07.080Z,5.25
2019-01-12T11:47:17.296Z,5.28
2019-01-12T11:48:27.457Z,5.22
2019-01-12T11:49:37.701Z,5.16
2019-01-12T11:50:47.834Z,5.08
2019-01-12T11:51:58.002Z,5.11
2019-01-12T11:53:08.160Z,5.18
2019-01-12T11:54:18.315Z,5.18
2019-01-12T11:55:28.462Z,5.11
2019-01-12T11:56:38.615Z,5.14
2019-01-12T11:57:48.538Z,5.1
2019-01-12T11:58:58.675Z,5.08
2019-01-12T12:00:08.827Z,5.13
2019-01-12T12:01:18.978Z,5.14
2019-01-12T12:02:28.913Z,5.07
2019-01-12T12:03:45.450Z,5.11
2019-01-12T12:04:55.615Z,5.1
2019-01-12T12:06:05.747Z,5.07
2019-01-12T12:07:15.900Z,5.03
2019-01-12T12:08:26.058Z,5
2019-01-12T12:09:36.220Z,5.03
2019-01-12T12:10:46.420Z,5.06
2019-01-12T12:11:56.787Z,5.04
2019-01-12T12:13:06.982Z,5.04
2019-01-12T12:14:16.860Z,4.9
2019-01-12T12:15:26.991Z,4.92
2019-01-12T12:16:36.881Z,4.9
2019-01-12T12:17:47.043Z,4.98
2019-01-12T12:18:57.181Z,4.93
2019-01-12T12:20:07.310Z,4.96
2019-01-12T12:21:17.459Z,4.92
2019-01-12T12:22:27.638Z,4.93
2019-01-12T12:23:37.778Z,4.95
2019-01-12T12:24:47.900Z,4.93
2019-01-12T12:25:58.030Z,4.93
2019-01-12T12:27:08.191Z,4.98
2019-01-12T12:28:18.316Z,4.92
2019-01-12T12:29:28.460Z,4.93
2019-01-12T12:30:38.363Z,4.83
2019-01-12T12:31:48.256Z,4.8
2019-01-12T12:32:58.395Z,4.83
2019-01-12T12:34:08.553Z,4.83
2019-01-12T12:35:18.723Z,4.81
2019-01-12T12:36:28.843Z,4.8
2019-01-12T12:37:38.977Z,4.78
2019-01-12T12:38:49.101Z,4.65
2019-01-12T12:39:59.253Z,4.62
2019-01-12T12:41:09.419Z,4.71
2019-01-12T12:42:19.587Z,4.57
2019-01-12T12:43:29.715Z,4.67
2019-01-12T12:44:39.635Z,4.57
2019-01-12T12:45:49.776Z,4.57
2019-01-12T12:46:59.998Z,4.7
2019-01-12T12:48:10.184Z,4.62
2019-01-12T12:49:20.335Z,4.71
2019-01-12T12:50:31.450Z,4.67
2019-01-12T12:51:41.618Z,4.73
2019-01-12T12:52:51.754Z,4.77
2019-01-12T12:54:01.901Z,4.73
2019-01-12T12:55:12.115Z,4.63
2019-01-12T12:56:22.333Z,4.68
2019-01-12T12:57:37.851Z,4.68
2019-01-12T12:58:48.009Z,4.62
2019-01-12T12:59:58.172Z,4.77
2019-01-12T13:01:08.305Z,4.67
2019-01-12T13:02:18.433Z,4.74
2019-01-12T13:03:28.621Z,4.73
2019-01-12T13:04:38.755Z,4.74
2019-01-12T13:05:48.963Z,4.7
2019-01-12T13:06:59.093Z,4.67
2019-01-12T13:08:09.269Z,4.55
2019-01-12T13:09:19.440Z,4.57
2019-01-12T13:10:30.311Z,4.5
2019-01-12T13:11:40.461Z,4.68
2019-01-12T13:12:50.590Z,4.63
2019-01-12T13:14:00.486Z,4.65
2019-01-12T13:15:10.739Z,4.63
2019-01-12T13:16:20.958Z,4.62
2019-01-12T13:17:31.328Z,4.67
2019-01-12T13:18:41.496Z,4.5
2019-01-12T13:19:51.655Z,4.37
2019-01-12T13:21:01.807Z,4.46
2019-01-12T13:22:12.014Z,4.46
2019-01-12T13:23:22.341Z,4.33
2019-01-12T13:24:32.734Z,4.37
2019-01-12T13:25:43.155Z,4.34
2019-01-12T13:26:53.103Z,4.28
2019-01-12T13:28:03.282Z,4.3
2019-01-12T13:29:13.440Z,4.18
2019-01-12T13:30:23.613Z,4.2
2019-01-12T13:31:33.777Z,4.27
2019-01-12T13:32:43.972Z,4.22
2019-01-12T13:33:54.126Z,4.16
2019-01-12T13:35:04.271Z,4.25
2019-01-12T13:36:14.414Z,4.2
2019-01-12T13:37:24.577Z,4.2
2019-01-12T13:38:34.715Z,4.27
2019-01-12T13:39:44.871Z,4.25
2019-01-12T13:40:55.053Z,4.27
2019-01-12T13:42:05.215Z,4.18
2019-01-12T13:43:15.383Z,4.25
2019-01-12T13:44:25.518Z,4.22
2019-01-12T13:45:35.700Z,4.19
2019-01-12T13:46:45.888Z,4.22
2019-01-12T13:47:56.048Z,4.12
2019-01-12T13:49:06.244Z,4.09
2019-01-12T13:50:16.396Z,4.2
2019-01-12T13:51:26.855Z,4.19
2019-01-12T13:52:37.050Z,4.22
2019-01-12T13:53:47.235Z,4.23
2019-01-12T13:54:57.980Z,4.23
2019-01-12T13:56:08.173Z,4.22
2019-01-12T13:57:18.534Z,4.16
2019-01-12T13:58:28.695Z,4.22
2019-01-12T13:59:38.846Z,4.22
2019-01-12T14:00:48.986Z,4.16
2019-01-12T14:01:59.170Z,4.12
2019-01-12T14:03:08.710Z,4.16
2019-01-12T14:04:18.869Z,4.2
2019-01-12T14:05:29.010Z,4.12
2019-01-12T14:06:39.345Z,4.22
2019-01-12T14:07:55.807Z,4.12
2019-01-12T14:09:06.360Z,4.16
2019-01-12T14:10:16.485Z,4.13
2019-01-12T14:11:27.617Z,4.2
2019-01-12T14:12:37.793Z,4.19
2019-01-12T14:13:47.978Z,4.05
2019-01-12T14:14:58.129Z,4.11
2019-01-12T14:16:08.273Z,4.09
2019-01-12T14:17:18.435Z,4.23
2019-01-12T14:18:28.602Z,4.18
2019-01-12T14:19:38.779Z,4.27
2019-01-12T14:20:48.959Z,4.31
2019-01-12T14:21:59.146Z,4.22
2019-01-12T14:23:09.349Z,4.22
2019-01-12T14:24:19.513Z,4.2
2019-01-12T14:25:29.758Z,4.23
2019-01-12T14:26:39.928Z,4.19
2019-01-12T14:27:57.058Z,4.12
2019-01-12T14:29:07.235Z,4.18
2019-01-12T14:30:20.614Z,4.15
2019-01-12T14:31:30.747Z,4.15
2019-01-12T14:32:40.976Z,4.19
2019-01-12T14:33:50.935Z,4.19
2019-01-12T14:35:00.866Z,4.09
2019-01-12T14:36:10.962Z,4.15
2019-01-12T14:37:21.149Z,3.98
2019-01-12T14:38:31.285Z,4.11
2019-01-12T14:39:41.807Z,4.15
2019-01-12T14:40:51.982Z,4.09
2019-01-12T14:42:02.111Z,4.08
2019-01-12T14:43:12.248Z,3.98
2019-01-12T14:44:22.410Z,4.11
2019-01-12T14:45:32.540Z,4.15
2019-01-12T14:46:42.691Z,4.09
2019-01-12T14:47:52.838Z,4.12
2019-01-12T14:49:02.997Z,4.16
2019-01-12T14:50:13.145Z,4.16
2019-01-12T14:51:23.324Z,4.13
2019-01-12T14:52:33.509Z,4.22
2019-01-12T14:53:43.727Z,4.2
2019-01-12T14:54:53.907Z,4.2
2019-01-12T14:56:04.089Z,4.09
2019-01-12T14:57:14.252Z,4.11
2019-01-12T14:58:24.449Z,4.12
2019-01-12T14:59:34.674Z,4.16
2019-01-12T15:00:44.954Z,4.16
2019-01-12T15:01:55.203Z,4.19
2019-01-12T15:03:05.110Z,4.15
2019-01-12T15:04:15.329Z,4.22
2019-01-12T15:05:25.582Z,4.18
2019-01-12T15:06:35.862Z,4.12
2019-01-12T15:07:46.076Z,4.16
2019-01-12T15:08:56.099Z,4.15
2019-01-12T15:10:06.071Z,4.12
2019-01-12T15:11:16.241Z,4.12
2019-01-12T15:12:26.418Z,4.08
2019-01-12T15:13:36.598Z,4.15
2019-01-12T15:14:46.764Z,4.25
2019-01-12T15:15:56.963Z,4.22
2019-01-12T15:17:07.151Z,4.23
2019-01-12T15:18:17.349Z,4.25
2019-01-12T15:19:27.572Z,4.25
2019-01-12T15:20:37.767Z,4.13
2019-01-12T15:21:47.934Z,4.25
2019-01-12T15:22:58.122Z,4.2
2019-01-12T15:24:08.296Z,4.19
2019-01-12T15:25:18.456Z,4.2
2019-01-12T15:26:28.699Z,4.16
2019-01-12T15:27:39.068Z,4.12
2019-01-12T15:28:49.290Z,4.2
2019-01-12T15:29:59.443Z,4.18
2019-01-12T15:31:09.848Z,4.13
2019-01-12T15:32:19.645Z,4.22
2019-01-12T15:33:30.778Z,4.23
2019-01-12T15:34:40.966Z,4.23
2019-01-12T15:35:51.170Z,4.18
2019-01-12T15:37:01.443Z,4.19
2019-01-12T15:38:11.659Z,4.22
2019-01-12T15:39:21.814Z,4.23
2019-01-12T15:40:31.964Z,4.2